createdAt,value
2018-03-15T00:02:30.204Z,96971.55
2018-03-15T00:04:58.509Z,96972.98
2018-03-15T00:07:26.812Z,96967.78
2018-03-15T00:09:57.041Z,96961.39
2018-03-15T00:12:25.351Z,96967.44
2018-03-15T00:14:53.685Z,96968.73
2018-03-15T00:17:22.299Z,96960.42
2018-03-15T00:19:50.608Z,96963.36
2018-03-15T00:22:18.980Z,96966.80
2018-03-15T00:24:47.785Z,96969.27
2018-03-15T00:27:16.096Z,96973.17
2018-03-15T00:29:45.225Z,96975.99
2018-03-15T00:32:13.550Z,96980.98
2018-03-15T00:34:42.383Z,96973.55
2018-03-15T00:37:11.556Z,96973.60
2018-03-15T00:39:39.901Z,96969.95
2018-03-15T00:42:08.240Z,96967.66
2018-03-15T00:44:36.572Z,96972.66
2018-03-15T00:47:04.872Z,96970.48
2018-03-15T00:49:33.246Z,96962.33
2018-03-15T00:52:02.318Z,96962.88
2018-03-15T00:54:30.625Z,96955.27
2018-03-15T00:56:59.843Z,96954.92
2018-03-15T00:59:28.160Z,96953.94
2018-03-15T01:01:56.470Z,96950.64
2018-03-15T01:04:25.600Z,96942.61
2018-03-15T01:06:54.826Z,96942.31
2018-03-15T01:09:23.151Z,96946.82
2018-03-15T01:11:51.511Z,96944.05
2018-03-15T01:14:19.832Z,96947.47
2018-03-15T01:16:48.144Z,96944.80
2018-03-15T01:19:16.581Z,96945.70
2018-03-15T01:21:44.887Z,96951.28
2018-03-15T01:24:13.196Z,96953.57
2018-03-15T01:26:41.549Z,96942.42
2018-03-15T01:29:10.451Z,96937.25
2018-03-15T01:31:38.762Z,96928.26
2018-03-15T01:34:07.511Z,96922.33
2018-03-15T01:36:35.858Z,96917.20
2018-03-15T01:39:04.180Z,96923.87
2018-03-15T01:41:32.549Z,96917.07
2018-03-15T01:44:00.856Z,96911.21
2018-03-15T01:46:29.928Z,96905.66
2018-03-15T01:48:58.982Z,96905.68
2018-03-15T01:51:27.294Z,96902.33
2018-03-15T01:53:55.608Z,96900.94
2018-03-15T01:56:24.395Z,96904.73
2018-03-15T01:58:52.720Z,96900.32
2018-03-15T02:01:21.036Z,96897.16
2018-03-15T02:03:50.139Z,96892.43
2018-03-15T02:06:19.212Z,96878.33
2018-03-15T02:08:47.552Z,96871.83
2018-03-15T02:11:15.976Z,96872.88
2018-03-15T02:13:44.997Z,96868.38
2018-03-15T02:16:13.341Z,96868.87
2018-03-15T02:18:41.661Z,96872.55
2018-03-15T02:21:09.972Z,96865.69
2018-03-15T02:23:38.336Z,96866.88
2018-03-15T02:26:06.650Z,96856.81
2018-03-15T02:28:35.241Z,96849.84
2018-03-15T02:31:03.751Z,96845.21
2018-03-15T02:33:32.078Z,96840.69
2018-03-15T02:36:00.427Z,96846.09
2018-03-15T02:38:29.164Z,96841.85
2018-03-15T02:40:57.847Z,96844.39
2018-03-15T02:43:26.264Z,96842.61
2018-03-15T02:45:54.801Z,96843.98
2018-03-15T02:48:23.157Z,96844.37
2018-03-15T02:50:51.629Z,96837.92
2018-03-15T02:53:19.949Z,96834.58
2018-03-15T02:55:48.253Z,96832.41
2018-03-15T02:58:17.363Z,96832.13
2018-03-15T03:00:45.677Z,96832.55
2018-03-15T03:03:14.709Z,96829.30
2018-03-15T03:05:43.845Z,96833.22
2018-03-15T03:08:12.160Z,96828.72
2018-03-15T03:10:40.493Z,96825.84
2018-03-15T03:13:09.621Z,96818.45
2018-03-15T03:15:37.933Z,96814.66
2018-03-15T03:18:07.009Z,96812.20
2018-03-15T03:20:35.474Z,96811.55
2018-03-15T03:23:03.804Z,96804.41
2018-03-15T03:25:32.114Z,96801.42
2018-03-15T03:28:00.455Z,96795.06
2018-03-15T03:30:28.778Z,96796.11
2018-03-15T03:32:57.089Z,96793.28
2018-03-15T03:35:25.512Z,96788.98
2018-03-15T03:37:53.837Z,96776.80
2018-03-15T03:40:22.148Z,96781.34
2018-03-15T03:42:51.120Z,96781.14
2018-03-15T03:45:19.437Z,96773.62
2018-03-15T03:47:47.749Z,96778.91
2018-03-15T03:50:16.084Z,96779.52
2018-03-15T03:52:44.435Z,96776.75
2018-03-15T03:55:12.758Z,96780.44
2018-03-15T03:57:42.532Z,96774.08
2018-03-15T04:00:10.904Z,96776.15
2018-03-15T04:02:39.702Z,96763.70
2018-03-15T04:05:08.783Z,96769.69
2018-03-15T04:07:37.324Z,96766.20
2018-03-15T04:10:05.634Z,96757.02
2018-03-15T04:12:34.100Z,96749.88
2018-03-15T04:15:02.429Z,96743.67
2018-03-15T04:17:30.505Z,96742.98
2018-03-15T04:19:58.861Z,96731.09
2018-03-15T04:22:27.948Z,96726.58
2018-03-15T04:24:57.328Z,96729.19
2018-03-15T04:27:25.686Z,96720.34
2018-03-15T04:29:53.992Z,96710.50
2018-03-15T04:32:22.300Z,96700.36
2018-03-15T04:34:50.808Z,96694.76
2018-03-15T04:37:19.572Z,96692.44
2018-03-15T04:39:47.888Z,96693.70
2018-03-15T04:42:16.264Z,96693.67
2018-03-15T04:44:44.593Z,96692.74
2018-03-15T04:47:13.285Z,96699.06
2018-03-15T04:49:41.627Z,96704.55
2018-03-15T04:52:09.949Z,96701.52
2018-03-15T04:54:38.290Z,96696.42
2018-03-15T04:57:06.599Z,96683.90
2018-03-15T04:59:34.914Z,96673.19
2018-03-15T05:02:03.324Z,96669.48
2018-03-15T05:04:31.840Z,96659.16
2018-03-15T05:07:00.186Z,96652.48
2018-03-15T05:09:28.566Z,96646.31
2018-03-15T05:11:58.232Z,96644.44
2018-03-15T05:14:26.581Z,96640.15
2018-03-15T05:16:55.312Z,96644.89
2018-03-15T05:19:23.693Z,96639.48
2018-03-15T05:21:52.066Z,96642.09
2018-03-15T05:24:20.828Z,96637.51
2018-03-15T05:26:49.152Z,96629.38
2018-03-15T05:29:17.510Z,96622.03
2018-03-15T05:31:45.860Z,96623.74
2018-03-15T05:34:14.203Z,96620.41
2018-03-15T05:36:42.575Z,96611.13
2018-03-15T05:39:10.930Z,96603.63
2018-03-15T05:41:39.267Z,96603.27
2018-03-15T05:44:07.639Z,96594.83
2018-03-15T05:46:36.749Z,96596.36
2018-03-15T05:49:05.124Z,96598.39
2018-03-15T05:51:34.000Z,96591.74
2018-03-15T05:54:02.339Z,96601.69
2018-03-15T05:56:30.672Z,96597.52
2018-03-15T05:58:59.045Z,96600.38
2018-03-15T06:01:27.382Z,96596.87
2018-03-15T06:03:55.708Z,96590.96
2018-03-15T06:06:24.437Z,96585.68
2018-03-15T06:08:52.770Z,96574.78
2018-03-15T06:11:21.100Z,96570.32
2018-03-15T06:13:49.532Z,96572.19
2018-03-15T06:16:17.925Z,96575.98
2018-03-15T06:18:46.320Z,96577.63
2018-03-15T06:21:14.968Z,96579.81
2018-03-15T06:23:43.464Z,96581.16
2018-03-15T06:26:11.839Z,96580.12
2018-03-15T06:28:40.906Z,96577.95
2018-03-15T06:31:09.674Z,96578.86
2018-03-15T06:33:38.018Z,96567.12
2018-03-15T06:36:06.361Z,96566.64
2018-03-15T06:38:35.516Z,96576.14
2018-03-15T06:41:03.880Z,96571.36
2018-03-15T06:43:32.222Z,96569.50
2018-03-15T06:46:00.744Z,96562.48
2018-03-15T06:48:29.094Z,96555.87
2018-03-15T06:50:57.454Z,96561.08
2018-03-15T06:53:25.847Z,96554.91
2018-03-15T06:55:54.649Z,96561.39
2018-03-15T06:58:22.980Z,96561.59
2018-03-15T07:00:51.385Z,96567.41
2018-03-15T07:03:19.725Z,96562.69
2018-03-15T07:05:49.444Z,96567.47
2018-03-15T07:08:18.421Z,96568.34
2018-03-15T07:10:47.499Z,96571.03
2018-03-15T07:13:15.831Z,96566.41
2018-03-15T07:15:44.920Z,96579.17
2018-03-15T07:18:13.477Z,96574.30
2018-03-15T07:20:42.201Z,96574.30
2018-03-15T07:23:10.516Z,96569.95
2018-03-15T07:25:38.897Z,96569.07
2018-03-15T07:28:07.221Z,96572.95
2018-03-15T07:30:35.700Z,96563.65
2018-03-15T07:33:04.188Z,96561.22
2018-03-15T07:35:32.667Z,96557.72
2018-03-15T07:38:01.633Z,96541.09
2018-03-15T07:40:30.112Z,96550.61
2018-03-15T07:42:58.457Z,96550.81
2018-03-15T07:45:26.799Z,96552.45
2018-03-15T07:47:55.185Z,96546.32
2018-03-15T07:50:24.307Z,96541.30
2018-03-15T07:52:52.650Z,96530.58
2018-03-15T07:55:21.814Z,96532.62
2018-03-15T07:57:50.166Z,96528.98
2018-03-15T08:00:18.503Z,96509.71
2018-03-15T08:02:46.982Z,96508.23
2018-03-15T08:05:15.335Z,96508.20
2018-03-15T08:07:43.739Z,96498.38
2018-03-15T08:10:12.117Z,96493.86
2018-03-15T08:12:41.217Z,96497.70
2018-03-15T08:15:10.316Z,96486.87
2018-03-15T08:17:39.485Z,96493.63
2018-03-15T08:20:08.296Z,96497.94
2018-03-15T08:22:36.628Z,96499.84
2018-03-15T08:25:05.582Z,96502.49
2018-03-15T08:27:34.045Z,96499.00
2018-03-15T08:30:02.956Z,96502.95
2018-03-15T08:32:31.279Z,96501.00
2018-03-15T08:34:59.905Z,96491.09
2018-03-15T08:37:28.496Z,96477.27
2018-03-15T08:39:57.584Z,96477.66
2018-03-15T08:42:26.781Z,96479.70
2018-03-15T08:44:55.108Z,96484.44
2018-03-15T08:47:23.424Z,96479.11
2018-03-15T08:49:51.810Z,96483.17
2018-03-15T08:52:20.917Z,96477.67
2018-03-15T08:54:49.308Z,96469.08
2018-03-15T08:57:18.464Z,96463.44
2018-03-15T08:59:46.764Z,96454.72
2018-03-15T09:02:15.181Z,96434.99
2018-03-15T09:04:44.264Z,96447.42
2018-03-15T09:07:13.961Z,96449.95
2018-03-15T09:09:42.189Z,96446.31
2018-03-15T09:12:10.576Z,96450.00
2018-03-15T09:14:38.977Z,96439.58
2018-03-15T09:17:07.453Z,96440.64
2018-03-15T09:19:35.791Z,96443.22
2018-03-15T09:22:04.757Z,96440.10
2018-03-15T09:24:33.086Z,96438.38
2018-03-15T09:27:01.451Z,96431.48
2018-03-15T09:29:29.967Z,96426.37
2018-03-15T09:31:58.315Z,96425.77
2018-03-15T09:34:26.786Z,96419.02
2018-03-15T09:36:55.062Z,96418.36
2018-03-15T09:39:23.413Z,96426.19
2018-03-15T09:41:51.821Z,96423.80
2018-03-15T09:44:20.268Z,96416.44
2018-03-15T09:46:48.604Z,96405.36
2018-03-15T09:49:17.013Z,96394.27
2018-03-15T09:51:45.347Z,96386.85
2018-03-15T09:54:13.688Z,96383.95
2018-03-15T09:56:42.217Z,96386.94
2018-03-15T09:59:10.710Z,96390.38
2018-03-15T10:01:39.084Z,96389.00
2018-03-15T10:04:07.584Z,96385.41
2018-03-15T10:06:36.679Z,96375.63
2018-03-15T10:09:06.471Z,96370.50
2018-03-15T10:11:34.866Z,96361.01
2018-03-15T10:14:03.360Z,96347.31
2018-03-15T10:16:32.504Z,96339.50
2018-03-15T10:19:01.136Z,96351.48
2018-03-15T10:21:29.616Z,96357.05
2018-03-15T10:23:58.724Z,96351.77
2018-03-15T10:26:27.067Z,96346.34
2018-03-15T10:28:56.002Z,96348.25
2018-03-15T10:31:24.368Z,96361.62
2018-03-15T10:33:53.637Z,96375.98
2018-03-15T10:36:22.013Z,96381.59
2018-03-15T10:38:50.351Z,96395.38
2018-03-15T10:41:18.806Z,96403.90
2018-03-15T10:43:47.191Z,96402.05
2018-03-15T10:46:15.533Z,96403.26
2018-03-15T10:48:43.927Z,96393.98
2018-03-15T10:51:13.406Z,96389.46
2018-03-15T10:53:41.740Z,96374.66
2018-03-15T10:56:10.279Z,96366.16
2018-03-15T10:58:38.672Z,96363.64
2018-03-15T11:01:07.776Z,96358.37
2018-03-15T11:03:50.027Z,96357.34
2018-03-15T11:06:23.892Z,96353.80
2018-03-15T11:08:57.656Z,96355.80
2018-03-15T11:11:26.115Z,96346.68
2018-03-15T11:13:54.496Z,96348.06
2018-03-15T11:16:22.836Z,96349.73
2018-03-15T11:18:52.181Z,96347.81
2018-03-15T11:21:20.577Z,96334.70
2018-03-15T11:23:49.015Z,96330.19
2018-03-15T11:26:17.363Z,96342.09
2018-03-15T11:28:46.568Z,96337.62
2018-03-15T11:31:15.752Z,96338.62
2018-03-15T11:33:44.088Z,96334.49
2018-03-15T11:36:12.493Z,96334.70
2018-03-15T11:38:41.171Z,96327.45
2018-03-15T11:41:09.509Z,96319.59
2018-03-15T11:43:37.843Z,96311.63
2018-03-15T11:46:06.233Z,96301.68
2018-03-15T11:48:34.568Z,96303.36
2018-03-15T11:51:05.064Z,96298.41
2018-03-15T11:53:33.465Z,96286.41
2018-03-15T11:56:02.112Z,96280.67
2018-03-15T11:58:30.453Z,96274.26
2018-03-15T12:00:58.832Z,96270.61
2018-03-15T12:03:27.802Z,96269.92
2018-03-15T12:05:56.715Z,96259.20
2018-03-15T12:08:27.041Z,96262.42
2018-03-15T12:10:55.384Z,96254.16
2018-03-15T12:13:23.724Z,96250.25
2018-03-15T12:15:52.117Z,96249.42
2018-03-15T12:18:21.216Z,96235.12
2018-03-15T12:20:49.544Z,96232.17
2018-03-15T12:23:18.813Z,96230.60
2018-03-15T12:25:47.132Z,96221.73
2018-03-15T12:28:15.460Z,96214.79
2018-03-15T12:30:43.853Z,96216.52
2018-03-15T12:33:12.300Z,96216.55
2018-03-15T12:35:40.616Z,96215.38
2018-03-15T12:38:08.977Z,96200.95
2018-03-15T12:40:37.301Z,96196.54
2018-03-15T12:43:05.626Z,96182.28
2018-03-15T12:45:34.771Z,96170.02
2018-03-15T12:48:03.099Z,96157.90
2018-03-15T12:50:32.192Z,96168.61
2018-03-15T12:53:00.555Z,96156.45
2018-03-15T12:55:28.876Z,96145.98
2018-03-15T12:57:57.662Z,96139.11
2018-03-15T13:00:26.417Z,96131.07
2018-03-15T13:02:54.752Z,96124.14
2018-03-15T13:05:23.097Z,96124.35
2018-03-15T13:07:51.464Z,96130.23
2018-03-15T13:10:19.792Z,96124.20
2018-03-15T13:15:22.709Z,96126.99
2018-03-15T13:17:51.037Z,96111.33
2018-03-15T13:20:19.454Z,96115.04
2018-03-15T13:22:47.829Z,96113.91
2018-03-15T13:25:17.064Z,96107.44
2018-03-15T13:27:47.389Z,96103.41
2018-03-15T13:30:15.802Z,96119.14
2018-03-15T13:32:44.134Z,96096.28
2018-03-15T13:35:12.465Z,96094.34
2018-03-15T13:37:41.037Z,96101.30
2018-03-15T13:40:09.353Z,96105.85
2018-03-15T13:42:37.681Z,96113.91
2018-03-15T13:45:06.073Z,96106.02
2018-03-15T13:47:35.158Z,96104.45
2018-03-15T13:50:04.250Z,96103.20
2018-03-15T13:52:33.525Z,96107.56
2018-03-15T13:55:01.841Z,96095.09
2018-03-15T13:57:30.177Z,96094.58
2018-03-15T13:59:59.307Z,96082.63
2018-03-15T14:02:28.180Z,96087.16
2018-03-15T14:04:58.220Z,96093.61
2018-03-15T14:07:27.645Z,96093.33
2018-03-15T14:09:55.960Z,96088.02
2018-03-15T14:12:24.279Z,96090.92
2018-03-15T14:14:52.856Z,96079.00
2018-03-15T14:17:21.274Z,96081.71
2018-03-15T14:19:50.952Z,96081.94
2018-03-15T14:22:19.359Z,96075.89
2018-03-15T14:24:47.881Z,96066.55
2018-03-15T14:27:16.239Z,96053.50
2018-03-15T14:29:44.673Z,96044.09
2018-03-15T14:32:13.793Z,96030.06
2018-03-15T14:34:43.309Z,96016.30
2018-03-15T14:37:12.400Z,96010.44
2018-03-15T14:39:40.722Z,96015.67
2018-03-15T14:42:11.060Z,96009.06
2018-03-15T14:44:39.452Z,96013.97
2018-03-15T15:26:06.213Z,96056.97
2018-03-15T15:28:34.689Z,96038.75
2018-03-15T15:31:03.945Z,96045.96
2018-03-15T15:33:32.410Z,96046.03
2018-03-15T15:36:01.705Z,96044.57
2018-03-15T15:38:30.889Z,96043.84
2018-03-15T15:40:59.305Z,96040.55
2018-03-15T15:43:27.698Z,96040.79
2018-03-15T15:45:56.888Z,96043.27
2018-03-15T15:48:25.337Z,96034.21
2018-03-15T15:50:53.718Z,96025.05
2018-03-15T15:53:22.113Z,96021.53
2018-03-15T15:55:50.616Z,96008.33
2018-03-15T15:58:19.033Z,96010.67
2018-03-15T16:00:47.434Z,96001.08
2018-03-15T16:03:15.855Z,96006.12
2018-03-15T16:05:45.502Z,96025.09
2018-03-15T16:08:35.638Z,96014.91
2018-03-15T16:11:04.084Z,96019.82
2018-03-15T16:13:36.572Z,96022.95
2018-03-15T16:16:05.885Z,96025.07
2018-03-15T16:18:35.876Z,96025.62
2018-03-15T16:21:04.589Z,96028.88
2018-03-15T16:23:33.001Z,96030.48
2018-03-15T16:26:01.560Z,96032.09
2018-03-15T16:28:30.984Z,96028.09
2018-03-15T16:31:00.253Z,96029.39
2018-03-15T16:33:35.079Z,96018.09
2018-03-15T16:36:04.316Z,96015.34
2018-03-15T16:38:32.909Z,96007.36
2018-03-15T16:41:01.348Z,96009.38
2018-03-15T16:43:29.753Z,96014.92
2018-03-15T16:45:58.228Z,96011.16
2018-03-15T16:48:26.654Z,96010.09
2018-03-15T16:50:55.783Z,96014.36
2018-03-15T16:53:24.154Z,96010.23
2018-03-15T16:55:52.630Z,96015.73
2018-03-15T16:58:21.231Z,96021.11
2018-03-15T17:00:49.614Z,96020.43
2018-03-15T17:03:18.922Z,96022.03
2018-03-15T17:05:47.315Z,96028.45
2018-03-15T17:08:15.710Z,96026.84
2018-03-15T17:10:44.288Z,96033.40
2018-03-15T17:13:12.679Z,96037.83
2018-03-15T17:15:41.023Z,96035.62
2018-03-15T17:18:10.277Z,96036.61
2018-03-15T17:20:38.621Z,96042.95
2018-03-15T17:23:06.957Z,96044.79
2018-03-15T17:25:35.371Z,96051.00
2018-03-15T17:28:04.101Z,96061.29
2018-03-15T17:30:32.547Z,96059.63
2018-03-15T17:33:00.995Z,96059.58
2018-03-15T17:35:29.367Z,96070.56
2018-03-15T17:37:57.744Z,96077.03
2018-03-15T17:40:26.233Z,96067.64
2018-03-15T17:42:54.776Z,96082.00
2018-03-15T17:45:23.940Z,96086.38
2018-03-15T17:47:52.390Z,96099.38
2018-03-15T17:50:20.784Z,96111.62
2018-03-15T17:52:49.205Z,96119.69
2018-03-15T17:55:17.652Z,96118.41
2018-03-15T17:58:06.052Z,96132.19
2018-03-15T18:00:34.521Z,96141.49
2018-03-15T18:03:03.046Z,96152.40
2018-03-15T18:05:32.237Z,96154.89
2018-03-15T18:08:06.627Z,96160.66
2018-03-15T18:10:35.118Z,96165.55
2018-03-15T18:16:04.507Z,96175.91
2018-03-15T18:18:33.015Z,96178.50
2018-03-15T18:21:03.447Z,96191.22
2018-03-15T18:23:31.916Z,96188.00
2018-03-15T18:26:00.264Z,96182.48
2018-03-15T18:28:28.585Z,96195.60
2018-03-15T18:30:57.461Z,96199.97
2018-03-15T18:33:26.473Z,96197.93
2018-03-15T18:35:54.967Z,96197.55
2018-03-15T18:38:23.901Z,96195.44
2018-03-15T18:40:52.309Z,96200.64
2018-03-15T18:43:20.621Z,96201.65
2018-03-15T18:45:49.361Z,96206.91
2018-03-15T18:48:17.677Z,96210.27
2018-03-15T18:50:46.144Z,96195.08
2018-03-15T18:53:14.709Z,96203.58
2018-03-15T18:55:46.067Z,96203.38
2018-03-15T18:58:14.596Z,96194.79
2018-03-15T19:00:42.904Z,96202.66
2018-03-15T19:03:11.223Z,96203.92
2018-03-15T19:05:39.894Z,96202.19
2018-03-15T19:08:08.250Z,96213.30
2018-03-15T19:10:36.573Z,96225.71
2018-03-15T19:13:05.001Z,96230.30
2018-03-15T19:15:33.584Z,96237.02
2018-03-15T19:18:01.896Z,96241.79
2018-03-15T19:20:30.350Z,96242.61
2018-03-15T19:22:58.781Z,96243.22
2018-03-15T19:25:27.272Z,96253.88
2018-03-15T19:27:55.584Z,96256.58
2018-03-15T19:30:24.710Z,96255.27
2018-03-15T19:32:53.910Z,96260.36
2018-03-15T19:35:23.745Z,96260.13
2018-03-15T19:37:52.837Z,96269.16
2018-03-15T19:40:22.140Z,96283.60
2018-03-15T19:42:50.948Z,96289.35
2018-03-15T19:45:20.124Z,96287.80
2018-03-15T19:47:48.493Z,96292.69
2018-03-15T19:50:17.601Z,96291.39
2018-03-15T19:52:46.455Z,96293.42
2018-03-15T19:55:14.816Z,96294.80
2018-03-15T19:57:43.144Z,96304.90
2018-03-15T20:00:11.457Z,96310.93
2018-03-15T20:02:41.949Z,96311.14
2018-03-15T20:05:10.445Z,96317.61
2018-03-15T20:07:38.993Z,96316.22
2018-03-15T20:10:08.104Z,96326.17
2018-03-15T20:12:36.411Z,96336.71
2018-03-15T20:15:04.919Z,96337.98
2018-03-15T20:17:33.444Z,96344.95
2018-03-15T20:20:03.371Z,96344.22
2018-03-15T20:35:59.314Z,96361.29
2018-03-15T20:38:27.656Z,96361.29
2018-03-15T20:41:01.544Z,96362.00
2018-03-15T20:43:29.878Z,96365.81
2018-03-15T20:46:03.852Z,96366.87
2018-03-15T20:48:37.729Z,96367.64
2018-03-15T20:51:06.885Z,96360.84
2018-03-15T20:53:35.233Z,96365.84
2018-03-15T20:56:03.536Z,96357.39
2018-03-15T20:58:31.909Z,96363.06
2018-03-15T21:01:00.630Z,96375.82
2018-03-15T21:03:28.943Z,96384.66
2018-03-15T21:05:57.887Z,96390.83
2018-03-15T21:08:26.604Z,96398.13
2018-03-15T21:10:54.912Z,96400.16
2018-03-15T21:13:23.228Z,96400.98
2018-03-15T21:15:51.561Z,96406.30
2018-03-15T21:18:20.645Z,96407.56
2018-03-15T21:20:49.776Z,96410.32
2018-03-15T21:23:18.088Z,96416.67
2018-03-15T21:25:46.792Z,96421.80
2018-03-15T21:28:15.212Z,96419.27
2018-03-15T21:30:43.656Z,96415.19
2018-03-15T21:33:12.056Z,96423.06
2018-03-15T21:35:40.498Z,96417.93
2018-03-15T21:38:08.897Z,96426.12
2018-03-15T21:40:37.205Z,96437.55
2018-03-15T21:43:05.567Z,96439.13
2018-03-15T21:45:33.882Z,96443.38
2018-03-15T21:48:02.188Z,96449.56
2018-03-15T21:50:30.557Z,96446.08
2018-03-15T21:52:58.938Z,96449.23
2018-03-15T21:55:27.907Z,96452.53
2018-03-15T21:57:57.049Z,96455.65
2018-03-15T22:00:27.081Z,96458.04
2018-03-15T22:02:57.142Z,96461.64
2018-03-15T22:07:58.986Z,96469.77
2018-03-15T22:10:27.428Z,96469.63
2018-03-15T22:12:55.872Z,96475.41
2018-03-15T22:15:24.292Z,96475.23
2018-03-15T22:17:52.804Z,96481.69
2018-03-15T22:20:21.986Z,96472.23
2018-03-15T22:22:50.487Z,96481.05
2018-03-15T22:25:18.893Z,96492.44
2018-03-15T22:27:47.682Z,96487.02
2018-03-15T22:30:16.738Z,96493.47
2018-03-15T22:32:45.137Z,96492.94
2018-03-15T22:35:13.618Z,96495.92
2018-03-15T22:37:45.668Z,96489.64
2018-03-15T22:40:14.023Z,96489.08
2018-03-15T22:42:42.377Z,96489.56
2018-03-15T22:45:10.802Z,96486.30
2018-03-15T22:47:39.919Z,96489.22
2018-03-15T22:50:08.331Z,96485.09
2018-03-15T22:52:37.166Z,96487.91
2018-03-15T22:55:05.555Z,96485.84
2018-03-15T22:57:33.882Z,96486.30
2018-03-15T23:00:02.295Z,96484.52
2018-03-15T23:02:30.839Z,96476.64
2018-03-15T23:04:59.246Z,96472.67
2018-03-15T23:07:27.600Z,96485.96
2018-03-15T23:09:57.482Z,96493.39
2018-03-15T23:12:26.540Z,96501.02
2018-03-15T23:14:54.883Z,96506.44
2018-03-15T23:17:23.290Z,96510.33
2018-03-15T23:19:51.646Z,96509.06
2018-03-15T23:22:20.011Z,96509.53
2018-03-15T23:24:48.386Z,96510.89
2018-03-15T23:27:16.899Z,96512.39
2018-03-15T23:29:45.256Z,96507.02
2018-03-15T23:32:13.633Z,96514.71
2018-03-15T23:34:41.985Z,96512.64
2018-03-15T23:37:10.356Z,96523.36
2018-03-15T23:39:40.134Z,96518.94
2018-03-15T23:42:08.486Z,96512.45
2018-03-15T23:44:36.849Z,96509.95
2018-03-15T23:47:05.258Z,96511.21
2018-03-15T23:49:33.603Z,96515.83
2018-03-15T23:52:03.383Z,96515.70
2018-03-15T23:54:31.736Z,96517.45
2018-03-15T23:57:00.091Z,96524.20
2018-03-15T23:59:28.482Z,96523.48
